sensor_id;sensor_type;location;lat;lon;timestamp;P1;durP1;ratioP1;P2;durP2;ratioP2
34296;SDS011;20564;42.902;25.336;2023-02-28T00:00:14;8.20;;;2.40;;
34296;SDS011;20564;42.902;25.336;2023-02-28T00:02:42;7.13;;;2.53;;
34296;SDS011;20564;42.902;25.336;2023-02-28T00:05:20;8.18;;;2.60;;
34296;SDS011;20564;42.902;25.336;2023-02-28T00:07:48;6.97;;;2.55;;
34296;SDS011;20564;42.902;25.336;2023-02-28T00:10:43;6.68;;;2.35;;
34296;SDS011;20564;42.902;25.336;2023-02-28T00:14:01;8.10;;;2.40;;
34296;SDS011;20564;42.902;25.336;2023-02-28T00:16:42;6.95;;;2.40;;
34296;SDS011;20564;42.902;25.336;2023-02-28T00:23:39;5.57;;;2.22;;
34296;SDS011;20564;42.902;25.336;2023-02-28T00:26:37;8.27;;;3.00;;
34296;SDS011;20564;42.902;25.336;2023-02-28T00:29:16;5.43;;;2.20;;
34296;SDS011;20564;42.902;25.336;2023-02-28T00:31:50;5.28;;;2.13;;
34296;SDS011;20564;42.902;25.336;2023-02-28T00:41:15;6.50;;;2.40;;
34296;SDS011;20564;42.902;25.336;2023-02-28T00:44:09;7.03;;;2.28;;
34296;SDS011;20564;42.902;25.336;2023-02-28T00:46:57;8.23;;;2.58;;
34296;SDS011;20564;42.902;25.336;2023-02-28T00:52:15;7.25;;;2.25;;
34296;SDS011;20564;42.902;25.336;2023-02-28T00:55:02;5.78;;;2.28;;
34296;SDS011;20564;42.902;25.336;2023-02-28T00:57:29;6.18;;;1.98;;
34296;SDS011;20564;42.902;25.336;2023-02-28T00:59:56;6.63;;;2.45;;
34296;SDS011;20564;42.902;25.336;2023-02-28T01:02:23;7.57;;;2.72;;
34296;SDS011;20564;42.902;25.336;2023-02-28T01:05:53;5.65;;;1.92;;
34296;SDS011;20564;42.902;25.336;2023-02-28T01:08:43;6.57;;;2.60;;
34296;SDS011;20564;42.902;25.336;2023-02-28T01:12:13;6.97;;;2.47;;
34296;SDS011;20564;42.902;25.336;2023-02-28T01:14:58;7.63;;;2.58;;
34296;SDS011;20564;42.902;25.336;2023-02-28T01:17:55;9.48;;;2.78;;
34296;SDS011;20564;42.902;25.336;2023-02-28T01:20:32;9.20;;;2.43;;
34296;SDS011;20564;42.902;25.336;2023-02-28T01:30:28;6.35;;;1.98;;
34296;SDS011;20564;42.902;25.336;2023-02-28T01:47:21;8.43;;;2.75;;
34296;SDS011;20564;42.902;25.336;2023-02-28T01:50:06;8.85;;;3.15;;
34296;SDS011;20564;42.902;25.336;2023-02-28T01:53:23;9.18;;;3.38;;
34296;SDS011;20564;42.902;25.336;2023-02-28T01:55:58;8.63;;;3.17;;
34296;SDS011;20564;42.902;25.336;2023-02-28T01:58:30;7.07;;;2.50;;
34296;SDS011;20564;42.902;25.336;2023-02-28T02:08:22;6.72;;;2.28;;
34296;SDS011;20564;42.902;25.336;2023-02-28T02:11:47;10.30;;;3.95;;
34296;SDS011;20564;42.902;25.336;2023-02-28T02:17:56;7.57;;;3.17;;
34296;SDS011;20564;42.902;25.336;2023-02-28T02:21:00;9.00;;;2.92;;
34296;SDS011;20564;42.902;25.336;2023-02-28T02:30:14;9.90;;;3.75;;
34296;SDS011;20564;42.902;25.336;2023-02-28T02:43:44;9.98;;;3.65;;
34296;SDS011;20564;42.902;25.336;2023-02-28T02:50:38;12.20;;;3.25;;
34296;SDS011;20564;42.902;25.336;2023-02-28T02:53:55;8.85;;;2.72;;
34296;SDS011;20564;42.902;25.336;2023-02-28T02:56:27;11.43;;;3.60;;
34296;SDS011;20564;42.902;25.336;2023-02-28T02:59:23;11.13;;;3.63;;
34296;SDS011;20564;42.902;25.336;2023-02-28T03:01:56;8.65;;;3.28;;
34296;SDS011;20564;42.902;25.336;2023-02-28T03:05:12;10.27;;;3.63;;
34296;SDS011;20564;42.902;25.336;2023-02-28T03:07:45;10.07;;;4.03;;
34296;SDS011;20564;42.902;25.336;2023-02-28T03:10:59;9.38;;;3.15;;
34296;SDS011;20564;42.902;25.336;2023-02-28T03:29:45;7.63;;;3.13;;
34296;SDS011;20564;42.902;25.336;2023-02-28T03:32:38;8.90;;;3.38;;
34296;SDS011;20564;42.902;25.336;2023-02-28T03:36:20;8.85;;;2.70;;
34296;SDS011;20564;42.902;25.336;2023-02-28T03:43:27;8.50;;;2.92;;
34296;SDS011;20564;42.902;25.336;2023-02-28T03:45:58;9.15;;;2.85;;
34296;SDS011;20564;42.902;25.336;2023-02-28T03:52:06;10.07;;;3.75;;
34296;SDS011;20564;42.902;25.336;2023-02-28T03:54:39;8.68;;;3.28;;
34296;SDS011;20564;42.902;25.336;2023-02-28T04:01:20;11.95;;;3.30;;
34296;SDS011;20564;42.902;25.336;2023-02-28T04:04:33;11.02;;;3.83;;
34296;SDS011;20564;42.902;25.336;2023-02-28T04:07:34;9.63;;;3.58;;
34296;SDS011;20564;42.902;25.336;2023-02-28T04:18:55;9.63;;;2.97;;
34296;SDS011;20564;42.902;25.336;2023-02-28T04:21:16;8.80;;;3.28;;
34296;SDS011;20564;42.902;25.336;2023-02-28T04:23:56;10.13;;;3.17;;
34296;SDS011;20564;42.902;25.336;2023-02-28T04:26:56;9.02;;;2.65;;
34296;SDS011;20564;42.902;25.336;2023-02-28T04:32:33;9.45;;;2.92;;
34296;SDS011;20564;42.902;25.336;2023-02-28T04:35:34;12.63;;;3.25;;
34296;SDS011;20564;42.902;25.336;2023-02-28T04:38:45;11.32;;;4.15;;
34296;SDS011;20564;42.902;25.336;2023-02-28T04:44:32;7.32;;;2.90;;
34296;SDS011;20564;42.902;25.336;2023-02-28T04:47:02;10.63;;;3.63;;
34296;SDS011;20564;42.902;25.336;2023-02-28T04:49:30;9.57;;;3.30;;
34296;SDS011;20564;42.902;25.336;2023-02-28T04:51:58;9.20;;;3.60;;
34296;SDS011;20564;42.902;25.336;2023-02-28T04:54:25;11.43;;;3.28;;
34296;SDS011;20564;42.902;25.336;2023-02-28T04:56:53;9.90;;;3.58;;
34296;SDS011;20564;42.902;25.336;2023-02-28T04:59:31;11.38;;;3.40;;
34296;SDS011;20564;42.902;25.336;2023-02-28T05:02:17;9.05;;;2.92;;
34296;SDS011;20564;42.902;25.336;2023-02-28T05:05:18;11.40;;;3.30;;
34296;SDS011;20564;42.902;25.336;2023-02-28T05:08:19;9.50;;;3.80;;
34296;SDS011;20564;42.902;25.336;2023-02-28T05:14:28;9.38;;;3.67;;
34296;SDS011;20564;42.902;25.336;2023-02-28T05:17:03;10.80;;;3.80;;
34296;SDS011;20564;42.902;25.336;2023-02-28T05:20:19;8.13;;;3.17;;
34296;SDS011;20564;42.902;25.336;2023-02-28T05:22:52;10.07;;;3.47;;
34296;SDS011;20564;42.902;25.336;2023-02-28T05:25:33;11.60;;;3.33;;
34296;SDS011;20564;42.902;25.336;2023-02-28T05:28:03;9.68;;;3.40;;
34296;SDS011;20564;42.902;25.336;2023-02-28T05:30:52;9.55;;;3.30;;
34296;SDS011;20564;42.902;25.336;2023-02-28T05:33:19;9.30;;;3.78;;
34296;SDS011;20564;42.902;25.336;2023-02-28T05:36:13;9.45;;;3.45;;
34296;SDS011;20564;42.902;25.336;2023-02-28T05:38:59;9.02;;;3.97;;
34296;SDS011;20564;42.902;25.336;2023-02-28T05:41:29;11.00;;;4.57;;
34296;SDS011;20564;42.902;25.336;2023-02-28T05:44:28;8.43;;;3.15;;
34296;SDS011;20564;42.902;25.336;2023-02-28T05:47:25;9.15;;;3.05;;
34296;SDS011;20564;42.902;25.336;2023-02-28T05:50:02;6.20;;;2.67;;
34296;SDS011;20564;42.902;25.336;2023-02-28T05:52:33;10.43;;;4.07;;
34296;SDS011;20564;42.902;25.336;2023-02-28T05:55:08;12.82;;;4.40;;
34296;SDS011;20564;42.902;25.336;2023-02-28T05:57:58;8.43;;;3.40;;
34296;SDS011;20564;42.902;25.336;2023-02-28T06:01:24;11.90;;;3.75;;
34296;SDS011;20564;42.902;25.336;2023-02-28T06:03:54;6.32;;;2.63;;
34296;SDS011;20564;42.902;25.336;2023-02-28T06:06:22;10.40;;;3.90;;
34296;SDS011;20564;42.902;25.336;2023-02-28T06:08:59;10.35;;;3.97;;
34296;SDS011;20564;42.902;25.336;2023-02-28T06:11:46;10.52;;;3.17;;
34296;SDS011;20564;42.902;25.336;2023-02-28T06:21:23;9.98;;;3.38;;
34296;SDS011;20564;42.902;25.336;2023-02-28T06:25:03;8.30;;;3.50;;
34296;SDS011;20564;42.902;25.336;2023-02-28T06:31:13;9.68;;;3.15;;
34296;SDS011;20564;42.902;25.336;2023-02-28T06:38:01;10.38;;;3.20;;
34296;SDS011;20564;42.902;25.336;2023-02-28T06:40:42;10.18;;;3.42;;
34296;SDS011;20564;42.902;25.336;2023-02-28T06:43:26;10.55;;;3.97;;
34296;SDS011;20564;42.902;25.336;2023-02-28T06:49:10;9.27;;;3.20;;
34296;SDS011;20564;42.902;25.336;2023-02-28T06:52:03;10.88;;;4.38;;
34296;SDS011;20564;42.902;25.336;2023-02-28T06:55:48;11.90;;;4.80;;
34296;SDS011;20564;42.902;25.336;2023-02-28T06:58:24;11.80;;;3.88;;
34296;SDS011;20564;42.902;25.336;2023-02-28T07:02:07;13.07;;;4.05;;
34296;SDS011;20564;42.902;25.336;2023-02-28T07:04:36;8.75;;;3.30;;
34296;SDS011;20564;42.902;25.336;2023-02-28T07:07:07;10.93;;;3.30;;
34296;SDS011;20564;42.902;25.336;2023-02-28T07:09:42;13.63;;;4.53;;
34296;SDS011;20564;42.902;25.336;2023-02-28T07:12:09;10.93;;;4.07;;
34296;SDS011;20564;42.902;25.336;2023-02-28T07:14:45;10.70;;;4.00;;
34296;SDS011;20564;42.902;25.336;2023-02-28T07:17:18;13.63;;;4.10;;
34296;SDS011;20564;42.902;25.336;2023-02-28T07:19:45;11.85;;;4.07;;
34296;SDS011;20564;42.902;25.336;2023-02-28T07:22:12;10.02;;;3.78;;
34296;SDS011;20564;42.902;25.336;2023-02-28T07:24:45;13.82;;;4.65;;
34296;SDS011;20564;42.902;25.336;2023-02-28T07:27:15;9.27;;;4.38;;
34296;SDS011;20564;42.902;25.336;2023-02-28T07:29:54;11.85;;;4.05;;
34296;SDS011;20564;42.902;25.336;2023-02-28T07:32:23;11.25;;;4.55;;
34296;SDS011;20564;42.902;25.336;2023-02-28T07:34:51;13.25;;;4.43;;
34296;SDS011;20564;42.902;25.336;2023-02-28T07:37:21;10.77;;;3.60;;
34296;SDS011;20564;42.902;25.336;2023-02-28T07:39:51;11.02;;;4.82;;
34296;SDS011;20564;42.902;25.336;2023-02-28T07:42:26;11.32;;;3.88;;
34296;SDS011;20564;42.902;25.336;2023-02-28T07:44:57;10.48;;;3.38;;
34296;SDS011;20564;42.902;25.336;2023-02-28T07:47:25;10.20;;;4.22;;
34296;SDS011;20564;42.902;25.336;2023-02-28T07:49:55;11.75;;;3.97;;
34296;SDS011;20564;42.902;25.336;2023-02-28T07:52:27;9.57;;;4.10;;
34296;SDS011;20564;42.902;25.336;2023-02-28T07:54:54;10.38;;;3.95;;
34296;SDS011;20564;42.902;25.336;2023-02-28T07:57:21;14.68;;;4.30;;
34296;SDS011;20564;42.902;25.336;2023-02-28T07:59:50;10.75;;;3.85;;
34296;SDS011;20564;42.902;25.336;2023-02-28T08:02:22;10.07;;;4.00;;
34296;SDS011;20564;42.902;25.336;2023-02-28T08:04:49;9.48;;;3.65;;
34296;SDS011;20564;42.902;25.336;2023-02-28T08:07:17;10.52;;;4.10;;
34296;SDS011;20564;42.902;25.336;2023-02-28T08:10:00;9.45;;;3.53;;
34296;SDS011;20564;42.902;25.336;2023-02-28T08:13:03;11.73;;;4.15;;
34296;SDS011;20564;42.902;25.336;2023-02-28T08:15:30;8.47;;;3.10;;
34296;SDS011;20564;42.902;25.336;2023-02-28T08:17:57;11.18;;;3.75;;
34296;SDS011;20564;42.902;25.336;2023-02-28T08:20:26;9.52;;;3.72;;
34296;SDS011;20564;42.902;25.336;2023-02-28T08:22:55;11.38;;;3.70;;
34296;SDS011;20564;42.902;25.336;2023-02-28T08:25:32;11.55;;;3.50;;
34296;SDS011;20564;42.902;25.336;2023-02-28T08:28:27;9.25;;;3.42;;
34296;SDS011;20564;42.902;25.336;2023-02-28T08:34:27;11.52;;;4.13;;
34296;SDS011;20564;42.902;25.336;2023-02-28T08:37:44;12.45;;;4.07;;
34296;SDS011;20564;42.902;25.336;2023-02-28T08:41:03;8.18;;;3.90;;
34296;SDS011;20564;42.902;25.336;2023-02-28T08:43:51;11.45;;;4.72;;
34296;SDS011;20564;42.902;25.336;2023-02-28T08:58:53;8.23;;;2.83;;
34296;SDS011;20564;42.902;25.336;2023-02-28T09:02:16;8.73;;;2.88;;
34296;SDS011;20564;42.902;25.336;2023-02-28T09:05:14;9.15;;;3.85;;
34296;SDS011;20564;42.902;25.336;2023-02-28T09:07:41;8.48;;;3.10;;
34296;SDS011;20564;42.902;25.336;2023-02-28T09:10:15;6.57;;;2.45;;
34296;SDS011;20564;42.902;25.336;2023-02-28T09:12:43;9.38;;;3.03;;
34296;SDS011;20564;42.902;25.336;2023-02-28T09:15:36;8.80;;;3.15;;
34296;SDS011;20564;42.902;25.336;2023-02-28T09:18:04;8.00;;;3.13;;
34296;SDS011;20564;42.902;25.336;2023-02-28T09:20:31;10.35;;;3.40;;
34296;SDS011;20564;42.902;25.336;2023-02-28T09:23:01;10.00;;;3.08;;
34296;SDS011;20564;42.902;25.336;2023-02-28T09:25:28;9.87;;;3.23;;
34296;SDS011;20564;42.902;25.336;2023-02-28T09:27:56;9.32;;;2.75;;
34296;SDS011;20564;42.902;25.336;2023-02-28T09:30:23;9.60;;;2.72;;
34296;SDS011;20564;42.902;25.336;2023-02-28T09:32:53;7.85;;;2.80;;
34296;SDS011;20564;42.902;25.336;2023-02-28T09:35:27;9.02;;;3.13;;
34296;SDS011;20564;42.902;25.336;2023-02-28T09:38:07;6.72;;;2.80;;
34296;SDS011;20564;42.902;25.336;2023-02-28T09:42:32;10.65;;;3.40;;
34296;SDS011;20564;42.902;25.336;2023-02-28T09:45:47;9.25;;;3.30;;
34296;SDS011;20564;42.902;25.336;2023-02-28T09:48:56;8.07;;;3.67;;
34296;SDS011;20564;42.902;25.336;2023-02-28T09:54:21;9.68;;;4.60;;
34296;SDS011;20564;42.902;25.336;2023-02-28T09:56:56;7.60;;;2.58;;
34296;SDS011;20564;42.902;25.336;2023-02-28T10:05:16;6.90;;;2.63;;
34296;SDS011;20564;42.902;25.336;2023-02-28T10:08:16;10.02;;;3.45;;
34296;SDS011;20564;42.902;25.336;2023-02-28T10:11:09;9.48;;;3.08;;
34296;SDS011;20564;42.902;25.336;2023-02-28T10:14:01;6.65;;;1.90;;
34296;SDS011;20564;42.902;25.336;2023-02-28T10:16:35;8.38;;;3.00;;
34296;SDS011;20564;42.902;25.336;2023-02-28T10:21:49;6.38;;;2.80;;
34296;SDS011;20564;42.902;25.336;2023-02-28T10:29:45;8.25;;;3.28;;
34296;SDS011;20564;42.902;25.336;2023-02-28T10:32:17;9.43;;;2.75;;
34296;SDS011;20564;42.902;25.336;2023-02-28T10:34:52;6.95;;;2.50;;
34296;SDS011;20564;42.902;25.336;2023-02-28T10:37:45;9.75;;;3.38;;
34296;SDS011;20564;42.902;25.336;2023-02-28T10:43:02;8.70;;;2.97;;
34296;SDS011;20564;42.902;25.336;2023-02-28T10:45:31;7.00;;;2.83;;
34296;SDS011;20564;42.902;25.336;2023-02-28T10:48:06;6.78;;;2.53;;
34296;SDS011;20564;42.902;25.336;2023-02-28T10:50:53;6.45;;;2.03;;
34296;SDS011;20564;42.902;25.336;2023-02-28T10:58:54;7.25;;;3.25;;
34296;SDS011;20564;42.902;25.336;2023-02-28T11:09:56;7.40;;;2.38;;
34296;SDS011;20564;42.902;25.336;2023-02-28T11:18:21;7.75;;;2.17;;
34296;SDS011;20564;42.902;25.336;2023-02-28T11:20:52;6.00;;;2.10;;
34296;SDS011;20564;42.902;25.336;2023-02-28T11:23:26;6.00;;;1.83;;
34296;SDS011;20564;42.902;25.336;2023-02-28T11:26:06;5.40;;;2.17;;
34296;SDS011;20564;42.902;25.336;2023-02-28T11:28:39;6.32;;;1.90;;
34296;SDS011;20564;42.902;25.336;2023-02-28T11:39:22;6.82;;;2.33;;
34296;SDS011;20564;42.902;25.336;2023-02-28T11:44:41;9.98;;;3.45;;
34296;SDS011;20564;42.902;25.336;2023-02-28T11:53:10;8.27;;;2.53;;
34296;SDS011;20564;42.902;25.336;2023-02-28T11:55:48;7.30;;;2.60;;
34296;SDS011;20564;42.902;25.336;2023-02-28T12:24:12;9.10;;;3.03;;
34296;SDS011;20564;42.902;25.336;2023-02-28T12:27:27;8.05;;;2.53;;
34296;SDS011;20564;42.902;25.336;2023-02-28T12:31:18;10.77;;;3.17;;
34296;SDS011;20564;42.902;25.336;2023-02-28T12:35:10;8.65;;;3.20;;
34296;SDS011;20564;42.902;25.336;2023-02-28T12:38:19;6.85;;;2.40;;
34296;SDS011;20564;42.902;25.336;2023-02-28T12:41:22;7.50;;;2.88;;
34296;SDS011;20564;42.902;25.336;2023-02-28T12:48:34;9.27;;;2.65;;
34296;SDS011;20564;42.902;25.336;2023-02-28T13:09:10;6.45;;;2.75;;
34296;SDS011;20564;42.902;25.336;2023-02-28T13:12:01;7.45;;;3.10;;
34296;SDS011;20564;42.902;25.336;2023-02-28T13:15:01;8.45;;;3.03;;
34296;SDS011;20564;42.902;25.336;2023-02-28T13:18:45;8.98;;;2.40;;
34296;SDS011;20564;42.902;25.336;2023-02-28T14:04:41;7.03;;;2.38;;
34296;SDS011;20564;42.902;25.336;2023-02-28T14:10:23;3.67;;;1.38;;
34296;SDS011;20564;42.902;25.336;2023-02-28T14:15:46;4.65;;;1.65;;
34296;SDS011;20564;42.902;25.336;2023-02-28T14:18:34;7.13;;;1.45;;
34296;SDS011;20564;42.902;25.336;2023-02-28T14:33:33;2.30;;;0.82;;
34296;SDS011;20564;42.902;25.336;2023-02-28T14:36:18;4.45;;;1.52;;
34296;SDS011;20564;42.902;25.336;2023-02-28T14:38:58;4.18;;;1.30;;
34296;SDS011;20564;42.902;25.336;2023-02-28T14:45:01;4.85;;;1.27;;
34296;SDS011;20564;42.902;25.336;2023-02-28T14:51:17;3.70;;;0.75;;
34296;SDS011;20564;42.902;25.336;2023-02-28T14:54:17;1.95;;;0.82;;
34296;SDS011;20564;42.902;25.336;2023-02-28T14:56:53;5.38;;;1.20;;
34296;SDS011;20564;42.902;25.336;2023-02-28T14:59:29;2.75;;;0.90;;
34296;SDS011;20564;42.902;25.336;2023-02-28T15:02:30;1.42;;;0.60;;
34296;SDS011;20564;42.902;25.336;2023-02-28T15:05:30;2.05;;;0.80;;
34296;SDS011;20564;42.902;25.336;2023-02-28T15:08:44;1.83;;;0.70;;
34296;SDS011;20564;42.902;25.336;2023-02-28T15:15:16;3.47;;;1.15;;
34296;SDS011;20564;42.902;25.336;2023-02-28T15:21:00;2.53;;;1.05;;
34296;SDS011;20564;42.902;25.336;2023-02-28T15:27:50;1.35;;;0.55;;
34296;SDS011;20564;42.902;25.336;2023-02-28T15:34:12;4.10;;;0.73;;
34296;SDS011;20564;42.902;25.336;2023-02-28T15:56:31;2.30;;;0.70;;
34296;SDS011;20564;42.902;25.336;2023-02-28T16:03:21;1.85;;;0.70;;
34296;SDS011;20564;42.902;25.336;2023-02-28T16:06:08;2.97;;;0.52;;
34296;SDS011;20564;42.902;25.336;2023-02-28T16:09:02;2.67;;;0.55;;
34296;SDS011;20564;42.902;25.336;2023-02-28T16:19:32;1.52;;;0.68;;
34296;SDS011;20564;42.902;25.336;2023-02-28T16:26:32;1.02;;;0.30;;
34296;SDS011;20564;42.902;25.336;2023-02-28T16:29:37;1.55;;;0.40;;
34296;SDS011;20564;42.902;25.336;2023-02-28T16:39:44;1.13;;;0.85;;
34296;SDS011;20564;42.902;25.336;2023-02-28T16:42:31;2.17;;;0.60;;
34296;SDS011;20564;42.902;25.336;2023-02-28T16:45:58;3.50;;;1.10;;
34296;SDS011;20564;42.902;25.336;2023-02-28T16:48:43;3.50;;;1.20;;
34296;SDS011;20564;42.902;25.336;2023-02-28T16:52:49;2.88;;;1.00;;
34296;SDS011;20564;42.902;25.336;2023-02-28T16:55:29;3.13;;;1.02;;
34296;SDS011;20564;42.902;25.336;2023-02-28T17:01:57;0.68;;;0.35;;
34296;SDS011;20564;42.902;25.336;2023-02-28T17:04:30;2.47;;;0.82;;
34296;SDS011;20564;42.902;25.336;2023-02-28T17:07:27;1.30;;;0.57;;
34296;SDS011;20564;42.902;25.336;2023-02-28T17:11:05;3.20;;;0.77;;
34296;SDS011;20564;42.902;25.336;2023-02-28T17:14:15;1.98;;;0.80;;
34296;SDS011;20564;42.902;25.336;2023-02-28T17:21:19;9.52;;;3.35;;
34296;SDS011;20564;42.902;25.336;2023-02-28T17:23:50;41.55;;;17.58;;
34296;SDS011;20564;42.902;25.336;2023-02-28T17:26:31;26.92;;;10.18;;
34296;SDS011;20564;42.902;25.336;2023-02-28T17:29:09;17.45;;;7.00;;
34296;SDS011;20564;42.902;25.336;2023-02-28T17:39:24;6.93;;;1.83;;
34296;SDS011;20564;42.902;25.336;2023-02-28T17:42:02;3.05;;;1.30;;
34296;SDS011;20564;42.902;25.336;2023-02-28T17:44:51;3.25;;;1.10;;
34296;SDS011;20564;42.902;25.336;2023-02-28T17:47:29;1.90;;;0.68;;
34296;SDS011;20564;42.902;25.336;2023-02-28T17:50:20;1.92;;;0.73;;
34296;SDS011;20564;42.902;25.336;2023-02-28T17:53:27;3.33;;;1.65;;
34296;SDS011;20564;42.902;25.336;2023-02-28T18:03:00;1.60;;;0.52;;
34296;SDS011;20564;42.902;25.336;2023-02-28T18:05:27;3.13;;;0.97;;
34296;SDS011;20564;42.902;25.336;2023-02-28T18:07:59;3.08;;;0.98;;
34296;SDS011;20564;42.902;25.336;2023-02-28T18:10:27;1.70;;;0.70;;
34296;SDS011;20564;42.902;25.336;2023-02-28T18:13:06;2.45;;;0.90;;
34296;SDS011;20564;42.902;25.336;2023-02-28T18:15:51;2.58;;;0.63;;
34296;SDS011;20564;42.902;25.336;2023-02-28T18:19:05;3.00;;;0.85;;
34296;SDS011;20564;42.902;25.336;2023-02-28T18:21:38;1.88;;;0.63;;
34296;SDS011;20564;42.902;25.336;2023-02-28T18:24:23;2.38;;;0.80;;
34296;SDS011;20564;42.902;25.336;2023-02-28T18:27:35;3.22;;;0.70;;
34296;SDS011;20564;42.902;25.336;2023-02-28T18:30:11;3.05;;;1.20;;
34296;SDS011;20564;42.902;25.336;2023-02-28T18:33:34;1.15;;;0.60;;
34296;SDS011;20564;42.902;25.336;2023-02-28T18:36:45;2.60;;;1.00;;
34296;SDS011;20564;42.902;25.336;2023-02-28T18:39:31;2.22;;;0.90;;
34296;SDS011;20564;42.902;25.336;2023-02-28T18:41:59;4.97;;;1.10;;
34296;SDS011;20564;42.902;25.336;2023-02-28T18:44:39;2.10;;;0.80;;
34296;SDS011;20564;42.902;25.336;2023-02-28T18:47:06;3.30;;;0.95;;
34296;SDS011;20564;42.902;25.336;2023-02-28T18:49:35;3.13;;;1.17;;
34296;SDS011;20564;42.902;25.336;2023-02-28T18:52:03;2.45;;;1.13;;
34296;SDS011;20564;42.902;25.336;2023-02-28T18:54:43;3.17;;;1.33;;
34296;SDS011;20564;42.902;25.336;2023-02-28T19:00:15;1.77;;;0.57;;
34296;SDS011;20564;42.902;25.336;2023-02-28T19:02:48;3.22;;;0.75;;
34296;SDS011;20564;42.902;25.336;2023-02-28T19:05:22;4.03;;;0.90;;
34296;SDS011;20564;42.902;25.336;2023-02-28T19:07:54;3.47;;;0.80;;
34296;SDS011;20564;42.902;25.336;2023-02-28T19:11:17;2.15;;;1.23;;
34296;SDS011;20564;42.902;25.336;2023-02-28T19:14:32;3.03;;;1.15;;
34296;SDS011;20564;42.902;25.336;2023-02-28T19:17:37;2.25;;;0.95;;
34296;SDS011;20564;42.902;25.336;2023-02-28T19:20:15;4.18;;;1.45;;
34296;SDS011;20564;42.902;25.336;2023-02-28T19:23:02;3.55;;;1.17;;
34296;SDS011;20564;42.902;25.336;2023-02-28T19:29:10;3.08;;;1.30;;
34296;SDS011;20564;42.902;25.336;2023-02-28T19:35:15;6.00;;;1.50;;
34296;SDS011;20564;42.902;25.336;2023-02-28T19:40:45;13.18;;;4.82;;
34296;SDS011;20564;42.902;25.336;2023-02-28T19:43:12;25.02;;;11.73;;
34296;SDS011;20564;42.902;25.336;2023-02-28T19:46:03;28.40;;;12.07;;
34296;SDS011;20564;42.902;25.336;2023-02-28T19:49:04;26.08;;;9.02;;
34296;SDS011;20564;42.902;25.336;2023-02-28T19:51:35;24.48;;;8.73;;
34296;SDS011;20564;42.902;25.336;2023-02-28T19:54:04;14.82;;;5.82;;
34296;SDS011;20564;42.902;25.336;2023-02-28T19:56:46;11.30;;;3.60;;
34296;SDS011;20564;42.902;25.336;2023-02-28T19:59:32;8.73;;;2.70;;
34296;SDS011;20564;42.902;25.336;2023-02-28T20:04:57;3.63;;;1.20;;
34296;SDS011;20564;42.902;25.336;2023-02-28T20:08:05;5.60;;;2.35;;
34296;SDS011;20564;42.902;25.336;2023-02-28T20:11:38;4.03;;;2.10;;
34296;SDS011;20564;42.902;25.336;2023-02-28T20:14:14;4.90;;;1.33;;
34296;SDS011;20564;42.902;25.336;2023-02-28T20:17:24;6.00;;;2.03;;
34296;SDS011;20564;42.902;25.336;2023-02-28T20:19:56;5.65;;;2.03;;
34296;SDS011;20564;42.902;25.336;2023-02-28T20:30:09;10.77;;;5.13;;
34296;SDS011;20564;42.902;25.336;2023-02-28T20:33:28;12.48;;;4.82;;
34296;SDS011;20564;42.902;25.336;2023-02-28T20:36:00;10.05;;;4.13;;
34296;SDS011;20564;42.902;25.336;2023-02-28T20:38:42;11.25;;;4.65;;
34296;SDS011;20564;42.902;25.336;2023-02-28T20:41:50;8.32;;;3.47;;
34296;SDS011;20564;42.902;25.336;2023-02-28T20:51:13;6.40;;;2.72;;
34296;SDS011;20564;42.902;25.336;2023-02-28T20:53:48;6.85;;;2.60;;
34296;SDS011;20564;42.902;25.336;2023-02-28T20:56:18;5.75;;;2.20;;
34296;SDS011;20564;42.902;25.336;2023-02-28T20:58:47;5.10;;;2.03;;
34296;SDS011;20564;42.902;25.336;2023-02-28T21:01:56;5.32;;;2.15;;
34296;SDS011;20564;42.902;25.336;2023-02-28T21:04:32;5.20;;;1.70;;
34296;SDS011;20564;42.902;25.336;2023-02-28T21:07:11;3.50;;;1.67;;
34296;SDS011;20564;42.902;25.336;2023-02-28T21:10:14;4.43;;;1.90;;
34296;SDS011;20564;42.902;25.336;2023-02-28T21:12:48;9.80;;;3.40;;
34296;SDS011;20564;42.902;25.336;2023-02-28T21:15:29;10.93;;;3.88;;
34296;SDS011;20564;42.902;25.336;2023-02-28T21:18:13;10.55;;;3.20;;
34296;SDS011;20564;42.902;25.336;2023-02-28T21:20:41;8.40;;;1.88;;
34296;SDS011;20564;42.902;25.336;2023-02-28T21:24:05;5.20;;;2.17;;
34296;SDS011;20564;42.902;25.336;2023-02-28T21:27:18;3.78;;;1.88;;
34296;SDS011;20564;42.902;25.336;2023-02-28T21:29:53;2.97;;;1.30;;
34296;SDS011;20564;42.902;25.336;2023-02-28T21:33:05;4.88;;;1.20;;
34296;SDS011;20564;42.902;25.336;2023-02-28T21:35:35;4.22;;;1.10;;
34296;SDS011;20564;42.902;25.336;2023-02-28T21:38:22;4.15;;;1.60;;
34296;SDS011;20564;42.902;25.336;2023-02-28T21:40:49;5.70;;;2.15;;
34296;SDS011;20564;42.902;25.336;2023-02-28T21:43:22;9.82;;;2.72;;
34296;SDS011;20564;42.902;25.336;2023-02-28T21:45:49;5.20;;;1.90;;
34296;SDS011;20564;42.902;25.336;2023-02-28T21:48:32;3.22;;;1.60;;
34296;SDS011;20564;42.902;25.336;2023-02-28T21:52:05;3.20;;;1.10;;
34296;SDS011;20564;42.902;25.336;2023-02-28T21:54:42;3.88;;;1.40;;
34296;SDS011;20564;42.902;25.336;2023-02-28T21:57:35;3.47;;;1.05;;
34296;SDS011;20564;42.902;25.336;2023-02-28T22:00:24;2.35;;;1.20;;
34296;SDS011;20564;42.902;25.336;2023-02-28T22:02:52;1.73;;;0.70;;
34296;SDS011;20564;42.902;25.336;2023-02-28T22:05:19;2.55;;;0.75;;
34296;SDS011;20564;42.902;25.336;2023-02-28T22:07:58;2.58;;;0.82;;
34296;SDS011;20564;42.902;25.336;2023-02-28T22:10:25;1.77;;;0.50;;
34296;SDS011;20564;42.902;25.336;2023-02-28T22:13:04;1.55;;;0.50;;
34296;SDS011;20564;42.902;25.336;2023-02-28T22:15:38;2.45;;;0.82;;
34296;SDS011;20564;42.902;25.336;2023-02-28T22:18:08;2.83;;;1.02;;
34296;SDS011;20564;42.902;25.336;2023-02-28T22:20:35;2.55;;;1.08;;
34296;SDS011;20564;42.902;25.336;2023-02-28T22:29:41;3.10;;;0.77;;
34296;SDS011;20564;42.902;25.336;2023-02-28T22:32:25;2.20;;;0.70;;
34296;SDS011;20564;42.902;25.336;2023-02-28T22:35:12;1.75;;;0.63;;
34296;SDS011;20564;42.902;25.336;2023-02-28T22:37:46;3.28;;;1.13;;
34296;SDS011;20564;42.902;25.336;2023-02-28T22:40:24;4.10;;;1.73;;
34296;SDS011;20564;42.902;25.336;2023-02-28T22:43:10;2.60;;;1.05;;
34296;SDS011;20564;42.902;25.336;2023-02-28T22:46:05;1.13;;;0.50;;
34296;SDS011;20564;42.902;25.336;2023-02-28T22:52:18;3.22;;;0.70;;
34296;SDS011;20564;42.902;25.336;2023-02-28T22:55:26;7.95;;;2.33;;
34296;SDS011;20564;42.902;25.336;2023-02-28T22:58:01;7.13;;;1.70;;
34296;SDS011;20564;42.902;25.336;2023-02-28T23:01:08;6.85;;;1.75;;
34296;SDS011;20564;42.902;25.336;2023-02-28T23:03:43;7.22;;;2.90;;
34296;SDS011;20564;42.902;25.336;2023-02-28T23:06:26;6.15;;;2.15;;
34296;SDS011;20564;42.902;25.336;2023-02-28T23:09:00;5.20;;;1.50;;
34296;SDS011;20564;42.902;25.336;2023-02-28T23:11:39;5.80;;;1.55;;
34296;SDS011;20564;42.902;25.336;2023-02-28T23:14:08;4.20;;;1.48;;
34296;SDS011;20564;42.902;25.336;2023-02-28T23:16:42;4.53;;;1.17;;
34296;SDS011;20564;42.902;25.336;2023-02-28T23:19:39;2.05;;;0.75;;
34296;SDS011;20564;42.902;25.336;2023-02-28T23:22:15;2.65;;;1.10;;
34296;SDS011;20564;42.902;25.336;2023-02-28T23:24:46;0.98;;;0.63;;
34296;SDS011;20564;42.902;25.336;2023-02-28T23:27:18;1.63;;;0.68;;
34296;SDS011;20564;42.902;25.336;2023-02-28T23:29:55;11.57;;;4.80;;
34296;SDS011;20564;42.902;25.336;2023-02-28T23:35:41;4.63;;;2.00;;
34296;SDS011;20564;42.902;25.336;2023-02-28T23:38:28;11.68;;;4.47;;